sensor_id;sensor_type;location;lat;lon;timestamp;P1;durP1;ratioP1;P2;durP2;ratioP2
41927;SDS011;27616;51.420;6.788;2023-05-10T00:00:47;13.18;;;5.85;;
41927;SDS011;27616;51.420;6.788;2023-05-10T00:03:12;11.65;;;5.60;;
41927;SDS011;27616;51.420;6.788;2023-05-10T00:05:38;11.57;;;5.55;;
41927;SDS011;27616;51.420;6.788;2023-05-10T00:08:04;13.18;;;5.13;;
41927;SDS011;27616;51.420;6.788;2023-05-10T00:10:30;12.90;;;5.80;;
41927;SDS011;27616;51.420;6.788;2023-05-10T00:12:55;12.57;;;5.68;;
41927;SDS011;27616;51.420;6.788;2023-05-10T00:15:21;12.05;;;5.30;;
41927;SDS011;27616;51.420;6.788;2023-05-10T00:17:47;11.85;;;5.68;;
41927;SDS011;27616;51.420;6.788;2023-05-10T00:20:12;12.40;;;5.25;;
41927;SDS011;27616;51.420;6.788;2023-05-10T00:22:38;10.82;;;5.40;;
41927;SDS011;27616;51.420;6.788;2023-05-10T00:25:04;13.73;;;5.55;;
41927;SDS011;27616;51.420;6.788;2023-05-10T00:27:31;14.35;;;6.18;;
41927;SDS011;27616;51.420;6.788;2023-05-10T00:29:56;13.48;;;5.38;;
41927;SDS011;27616;51.420;6.788;2023-05-10T00:32:22;13.93;;;5.72;;
41927;SDS011;27616;51.420;6.788;2023-05-10T00:34:48;14.70;;;6.38;;
41927;SDS011;27616;51.420;6.788;2023-05-10T00:37:14;14.50;;;5.55;;
41927;SDS011;27616;51.420;6.788;2023-05-10T00:39:39;12.95;;;5.20;;
41927;SDS011;27616;51.420;6.788;2023-05-10T00:42:05;13.25;;;5.28;;
41927;SDS011;27616;51.420;6.788;2023-05-10T00:44:31;15.00;;;5.45;;
41927;SDS011;27616;51.420;6.788;2023-05-10T00:46:57;15.07;;;6.03;;
41927;SDS011;27616;51.420;6.788;2023-05-10T00:49:24;12.35;;;5.65;;
41927;SDS011;27616;51.420;6.788;2023-05-10T00:51:49;14.38;;;6.40;;
41927;SDS011;27616;51.420;6.788;2023-05-10T00:54:15;13.50;;;6.00;;
41927;SDS011;27616;51.420;6.788;2023-05-10T00:56:41;14.57;;;6.07;;
41927;SDS011;27616;51.420;6.788;2023-05-10T00:59:09;12.48;;;5.72;;
41927;SDS011;27616;51.420;6.788;2023-05-10T01:01:35;14.23;;;6.30;;
41927;SDS011;27616;51.420;6.788;2023-05-10T01:04:01;18.60;;;7.57;;
41927;SDS011;27616;51.420;6.788;2023-05-10T01:06:28;16.90;;;7.03;;
41927;SDS011;27616;51.420;6.788;2023-05-10T01:08:54;13.68;;;6.30;;
41927;SDS011;27616;51.420;6.788;2023-05-10T01:11:21;16.27;;;6.43;;
41927;SDS011;27616;51.420;6.788;2023-05-10T01:13:47;16.73;;;6.68;;
41927;SDS011;27616;51.420;6.788;2023-05-10T01:16:20;19.23;;;6.47;;
41927;SDS011;27616;51.420;6.788;2023-05-10T01:18:47;16.73;;;6.90;;
41927;SDS011;27616;51.420;6.788;2023-05-10T01:34:59;14.90;;;6.32;;
41927;SDS011;27616;51.420;6.788;2023-05-10T01:37:31;14.10;;;6.80;;
41927;SDS011;27616;51.420;6.788;2023-05-10T01:40:08;16.35;;;7.05;;
41927;SDS011;27616;51.420;6.788;2023-05-10T01:42:51;16.25;;;7.00;;
41927;SDS011;27616;51.420;6.788;2023-05-10T01:45:41;15.27;;;6.95;;
41927;SDS011;27616;51.420;6.788;2023-05-10T01:48:16;17.02;;;6.93;;
41927;SDS011;27616;51.420;6.788;2023-05-10T01:50:44;17.17;;;7.43;;
41927;SDS011;27616;51.420;6.788;2023-05-10T01:53:11;18.75;;;7.75;;
41927;SDS011;27616;51.420;6.788;2023-05-10T01:55:39;17.08;;;7.03;;
41927;SDS011;27616;51.420;6.788;2023-05-10T01:58:25;18.35;;;8.18;;
41927;SDS011;27616;51.420;6.788;2023-05-10T02:00:54;16.70;;;6.95;;
41927;SDS011;27616;51.420;6.788;2023-05-10T02:03:24;16.85;;;6.90;;
41927;SDS011;27616;51.420;6.788;2023-05-10T02:05:53;18.77;;;7.38;;
41927;SDS011;27616;51.420;6.788;2023-05-10T02:08:21;15.57;;;6.78;;
41927;SDS011;27616;51.420;6.788;2023-05-10T02:10:49;17.23;;;7.18;;
41927;SDS011;27616;51.420;6.788;2023-05-10T02:13:18;17.33;;;6.25;;
41927;SDS011;27616;51.420;6.788;2023-05-10T02:15:46;18.83;;;7.35;;
41927;SDS011;27616;51.420;6.788;2023-05-10T02:18:13;18.38;;;7.63;;
41927;SDS011;27616;51.420;6.788;2023-05-10T02:20:40;16.70;;;7.15;;
41927;SDS011;27616;51.420;6.788;2023-05-10T02:23:07;21.38;;;8.45;;
41927;SDS011;27616;51.420;6.788;2023-05-10T02:25:34;18.95;;;7.65;;
41927;SDS011;27616;51.420;6.788;2023-05-10T02:28:02;17.75;;;7.35;;
41927;SDS011;27616;51.420;6.788;2023-05-10T02:30:31;18.35;;;7.45;;
41927;SDS011;27616;51.420;6.788;2023-05-10T02:32:57;21.83;;;7.32;;
41927;SDS011;27616;51.420;6.788;2023-05-10T02:35:25;17.52;;;7.38;;
41927;SDS011;27616;51.420;6.788;2023-05-10T02:37:52;18.35;;;7.72;;
41927;SDS011;27616;51.420;6.788;2023-05-10T02:40:19;18.27;;;7.60;;
41927;SDS011;27616;51.420;6.788;2023-05-10T02:42:47;20.60;;;7.90;;
41927;SDS011;27616;51.420;6.788;2023-05-10T02:47:44;15.82;;;6.43;;
41927;SDS011;27616;51.420;6.788;2023-05-10T02:50:10;15.80;;;7.20;;
41927;SDS011;27616;51.420;6.788;2023-05-10T02:52:40;16.17;;;7.22;;
41927;SDS011;27616;51.420;6.788;2023-05-10T02:55:15;17.45;;;6.43;;
41927;SDS011;27616;51.420;6.788;2023-05-10T02:57:57;16.13;;;6.53;;
41927;SDS011;27616;51.420;6.788;2023-05-10T03:00:25;16.58;;;6.65;;
41927;SDS011;27616;51.420;6.788;2023-05-10T03:02:51;15.00;;;6.28;;
41927;SDS011;27616;51.420;6.788;2023-05-10T03:05:17;17.98;;;7.00;;
41927;SDS011;27616;51.420;6.788;2023-05-10T03:07:43;18.80;;;6.85;;
41927;SDS011;27616;51.420;6.788;2023-05-10T03:10:09;17.27;;;7.05;;
41927;SDS011;27616;51.420;6.788;2023-05-10T03:20:38;17.52;;;7.05;;
41927;SDS011;27616;51.420;6.788;2023-05-10T03:25:43;16.30;;;6.65;;
41927;SDS011;27616;51.420;6.788;2023-05-10T03:28:12;17.27;;;7.70;;
41927;SDS011;27616;51.420;6.788;2023-05-10T03:33:09;20.75;;;7.20;;
41927;SDS011;27616;51.420;6.788;2023-05-10T03:35:39;18.67;;;7.57;;
41927;SDS011;27616;51.420;6.788;2023-05-10T03:38:05;18.95;;;7.50;;
41927;SDS011;27616;51.420;6.788;2023-05-10T03:40:31;16.40;;;6.75;;
41927;SDS011;27616;51.420;6.788;2023-05-10T03:42:58;18.65;;;7.80;;
41927;SDS011;27616;51.420;6.788;2023-05-10T03:45:25;16.77;;;7.28;;
41927;SDS011;27616;51.420;6.788;2023-05-10T03:47:51;16.80;;;6.85;;
41927;SDS011;27616;51.420;6.788;2023-05-10T03:50:16;18.95;;;8.02;;
41927;SDS011;27616;51.420;6.788;2023-05-10T03:52:43;18.35;;;7.93;;
41927;SDS011;27616;51.420;6.788;2023-05-10T03:55:09;19.00;;;7.78;;
41927;SDS011;27616;51.420;6.788;2023-05-10T03:57:36;18.27;;;7.38;;
41927;SDS011;27616;51.420;6.788;2023-05-10T04:00:02;16.65;;;7.53;;
41927;SDS011;27616;51.420;6.788;2023-05-10T04:02:39;19.95;;;8.20;;
41927;SDS011;27616;51.420;6.788;2023-05-10T04:05:06;19.70;;;7.80;;
41927;SDS011;27616;51.420;6.788;2023-05-10T04:07:32;19.20;;;8.13;;
41927;SDS011;27616;51.420;6.788;2023-05-10T04:09:58;18.75;;;8.05;;
41927;SDS011;27616;51.420;6.788;2023-05-10T04:12:24;21.45;;;8.50;;
41927;SDS011;27616;51.420;6.788;2023-05-10T04:14:50;20.75;;;8.57;;
41927;SDS011;27616;51.420;6.788;2023-05-10T04:17:16;18.15;;;7.50;;
41927;SDS011;27616;51.420;6.788;2023-05-10T04:19:41;22.23;;;9.15;;
41927;SDS011;27616;51.420;6.788;2023-05-10T04:22:07;21.02;;;8.77;;
41927;SDS011;27616;51.420;6.788;2023-05-10T04:24:33;24.27;;;9.38;;
41927;SDS011;27616;51.420;6.788;2023-05-10T04:26:59;28.73;;;10.70;;
41927;SDS011;27616;51.420;6.788;2023-05-10T04:29:25;19.42;;;9.02;;
41927;SDS011;27616;51.420;6.788;2023-05-10T04:31:51;25.63;;;10.38;;
41927;SDS011;27616;51.420;6.788;2023-05-10T04:34:19;29.52;;;9.75;;
41927;SDS011;27616;51.420;6.788;2023-05-10T04:36:45;23.35;;;9.60;;
41927;SDS011;27616;51.420;6.788;2023-05-10T04:39:11;23.60;;;10.38;;
41927;SDS011;27616;51.420;6.788;2023-05-10T04:41:37;23.80;;;10.23;;
41927;SDS011;27616;51.420;6.788;2023-05-10T04:44:03;26.63;;;9.95;;
41927;SDS011;27616;51.420;6.788;2023-05-10T04:46:29;25.40;;;10.48;;
41927;SDS011;27616;51.420;6.788;2023-05-10T04:48:55;28.02;;;10.85;;
41927;SDS011;27616;51.420;6.788;2023-05-10T04:51:20;24.42;;;10.40;;
41927;SDS011;27616;51.420;6.788;2023-05-10T04:53:46;25.58;;;11.50;;
41927;SDS011;27616;51.420;6.788;2023-05-10T04:56:12;25.55;;;11.00;;
41927;SDS011;27616;51.420;6.788;2023-05-10T04:58:37;26.15;;;11.32;;
41927;SDS011;27616;51.420;6.788;2023-05-10T05:01:07;26.55;;;12.35;;
41927;SDS011;27616;51.420;6.788;2023-05-10T05:03:33;26.67;;;11.02;;
41927;SDS011;27616;51.420;6.788;2023-05-10T05:05:59;24.60;;;11.05;;
41927;SDS011;27616;51.420;6.788;2023-05-10T05:08:24;24.65;;;10.30;;
41927;SDS011;27616;51.420;6.788;2023-05-10T05:10:51;23.17;;;10.57;;
41927;SDS011;27616;51.420;6.788;2023-05-10T05:13:16;25.25;;;10.70;;
41927;SDS011;27616;51.420;6.788;2023-05-10T05:15:42;25.23;;;11.55;;
41927;SDS011;27616;51.420;6.788;2023-05-10T05:18:08;27.30;;;11.27;;
41927;SDS011;27616;51.420;6.788;2023-05-10T05:20:33;25.45;;;11.02;;
41927;SDS011;27616;51.420;6.788;2023-05-10T05:23:00;26.05;;;11.13;;
41927;SDS011;27616;51.420;6.788;2023-05-10T05:25:25;26.05;;;10.98;;
41927;SDS011;27616;51.420;6.788;2023-05-10T05:27:51;26.05;;;10.95;;
41927;SDS011;27616;51.420;6.788;2023-05-10T05:30:17;26.08;;;10.50;;
41927;SDS011;27616;51.420;6.788;2023-05-10T05:32:43;24.45;;;10.55;;
41927;SDS011;27616;51.420;6.788;2023-05-10T05:35:08;28.33;;;11.95;;
41927;SDS011;27616;51.420;6.788;2023-05-10T05:37:34;28.75;;;11.20;;
41927;SDS011;27616;51.420;6.788;2023-05-10T05:40:00;27.08;;;12.38;;
41927;SDS011;27616;51.420;6.788;2023-05-10T05:42:26;26.80;;;12.07;;
41927;SDS011;27616;51.420;6.788;2023-05-10T05:44:52;25.95;;;11.52;;
41927;SDS011;27616;51.420;6.788;2023-05-10T05:47:18;29.38;;;12.13;;
41927;SDS011;27616;51.420;6.788;2023-05-10T05:49:44;29.73;;;12.35;;
41927;SDS011;27616;51.420;6.788;2023-05-10T05:52:12;27.08;;;11.00;;
41927;SDS011;27616;51.420;6.788;2023-05-10T05:54:38;27.10;;;10.50;;
41927;SDS011;27616;51.420;6.788;2023-05-10T05:57:04;29.63;;;12.43;;
41927;SDS011;27616;51.420;6.788;2023-05-10T05:59:30;27.88;;;10.57;;
41927;SDS011;27616;51.420;6.788;2023-05-10T06:01:55;31.02;;;11.82;;
41927;SDS011;27616;51.420;6.788;2023-05-10T06:04:21;32.67;;;11.40;;
41927;SDS011;27616;51.420;6.788;2023-05-10T06:06:47;30.85;;;11.57;;
41927;SDS011;27616;51.420;6.788;2023-05-10T06:09:12;33.78;;;13.10;;
41927;SDS011;27616;51.420;6.788;2023-05-10T06:11:38;34.28;;;12.07;;
41927;SDS011;27616;51.420;6.788;2023-05-10T06:14:04;35.20;;;13.35;;
41927;SDS011;27616;51.420;6.788;2023-05-10T06:16:32;33.08;;;13.65;;
41927;SDS011;27616;51.420;6.788;2023-05-10T06:18:58;32.25;;;13.05;;
41927;SDS011;27616;51.420;6.788;2023-05-10T06:21:23;37.22;;;13.55;;
41927;SDS011;27616;51.420;6.788;2023-05-10T06:23:49;34.47;;;13.75;;
41927;SDS011;27616;51.420;6.788;2023-05-10T06:26:15;37.35;;;13.95;;
41927;SDS011;27616;51.420;6.788;2023-05-10T06:28:41;33.45;;;12.90;;
41927;SDS011;27616;51.420;6.788;2023-05-10T06:31:06;36.53;;;14.48;;
41927;SDS011;27616;51.420;6.788;2023-05-10T06:33:32;39.75;;;14.88;;
41927;SDS011;27616;51.420;6.788;2023-05-10T06:35:59;41.45;;;13.63;;
41927;SDS011;27616;51.420;6.788;2023-05-10T06:38:25;35.45;;;14.10;;
41927;SDS011;27616;51.420;6.788;2023-05-10T06:40:51;41.40;;;13.13;;
41927;SDS011;27616;51.420;6.788;2023-05-10T06:43:16;36.92;;;13.50;;
41927;SDS011;27616;51.420;6.788;2023-05-10T06:45:42;33.83;;;12.25;;
41927;SDS011;27616;51.420;6.788;2023-05-10T06:48:08;32.78;;;13.45;;
41927;SDS011;27616;51.420;6.788;2023-05-10T06:50:34;33.83;;;13.13;;
41927;SDS011;27616;51.420;6.788;2023-05-10T06:53:00;32.33;;;12.52;;
41927;SDS011;27616;51.420;6.788;2023-05-10T06:55:29;36.60;;;13.68;;
41927;SDS011;27616;51.420;6.788;2023-05-10T06:57:54;28.83;;;11.88;;
41927;SDS011;27616;51.420;6.788;2023-05-10T07:00:20;33.20;;;12.88;;
41927;SDS011;27616;51.420;6.788;2023-05-10T07:02:46;35.67;;;13.07;;
41927;SDS011;27616;51.420;6.788;2023-05-10T07:05:12;33.83;;;13.15;;
41927;SDS011;27616;51.420;6.788;2023-05-10T07:07:39;30.48;;;11.38;;
41927;SDS011;27616;51.420;6.788;2023-05-10T07:10:05;30.05;;;12.52;;
41927;SDS011;27616;51.420;6.788;2023-05-10T07:12:32;30.30;;;11.98;;
41927;SDS011;27616;51.420;6.788;2023-05-10T07:14:58;34.30;;;12.57;;
41927;SDS011;27616;51.420;6.788;2023-05-10T07:17:23;28.52;;;12.07;;
41927;SDS011;27616;51.420;6.788;2023-05-10T07:19:49;32.80;;;12.93;;
41927;SDS011;27616;51.420;6.788;2023-05-10T07:22:15;28.55;;;11.30;;
41927;SDS011;27616;51.420;6.788;2023-05-10T07:24:42;30.70;;;12.13;;
41927;SDS011;27616;51.420;6.788;2023-05-10T07:27:08;32.15;;;11.90;;
41927;SDS011;27616;51.420;6.788;2023-05-10T07:29:34;26.27;;;11.25;;
41927;SDS011;27616;51.420;6.788;2023-05-10T07:32:00;28.02;;;11.65;;
41927;SDS011;27616;51.420;6.788;2023-05-10T07:34:26;28.75;;;10.70;;
41927;SDS011;27616;51.420;6.788;2023-05-10T07:36:52;23.75;;;9.73;;
41927;SDS011;27616;51.420;6.788;2023-05-10T07:39:18;23.85;;;9.90;;
41927;SDS011;27616;51.420;6.788;2023-05-10T07:41:45;25.75;;;9.52;;
41927;SDS011;27616;51.420;6.788;2023-05-10T07:44:11;22.30;;;9.27;;
41927;SDS011;27616;51.420;6.788;2023-05-10T07:46:37;25.23;;;10.63;;
41927;SDS011;27616;51.420;6.788;2023-05-10T07:49:03;25.08;;;10.88;;
41927;SDS011;27616;51.420;6.788;2023-05-10T07:51:28;28.92;;;11.35;;
41927;SDS011;27616;51.420;6.788;2023-05-10T07:53:54;24.50;;;10.60;;
41927;SDS011;27616;51.420;6.788;2023-05-10T07:56:24;28.05;;;11.00;;
41927;SDS011;27616;51.420;6.788;2023-05-10T07:58:51;30.10;;;11.77;;
41927;SDS011;27616;51.420;6.788;2023-05-10T08:01:17;25.50;;;11.43;;
41927;SDS011;27616;51.420;6.788;2023-05-10T08:03:43;24.08;;;10.52;;
41927;SDS011;27616;51.420;6.788;2023-05-10T08:06:08;23.08;;;10.93;;
41927;SDS011;27616;51.420;6.788;2023-05-10T08:08:34;22.63;;;10.00;;
41927;SDS011;27616;51.420;6.788;2023-05-10T08:11:00;28.15;;;10.98;;
41927;SDS011;27616;51.420;6.788;2023-05-10T08:13:25;26.77;;;10.07;;
41927;SDS011;27616;51.420;6.788;2023-05-10T08:15:51;33.35;;;11.80;;
41927;SDS011;27616;51.420;6.788;2023-05-10T08:18:18;38.95;;;15.63;;
41927;SDS011;27616;51.420;6.788;2023-05-10T08:20:44;36.38;;;15.50;;
41927;SDS011;27616;51.420;6.788;2023-05-10T08:23:12;34.80;;;12.23;;
41927;SDS011;27616;51.420;6.788;2023-05-10T08:25:38;38.28;;;14.90;;
41927;SDS011;27616;51.420;6.788;2023-05-10T08:28:04;34.15;;;12.88;;
41927;SDS011;27616;51.420;6.788;2023-05-10T08:30:29;35.00;;;14.93;;
41927;SDS011;27616;51.420;6.788;2023-05-10T08:32:55;29.33;;;12.02;;
41927;SDS011;27616;51.420;6.788;2023-05-10T08:35:21;29.35;;;11.48;;
41927;SDS011;27616;51.420;6.788;2023-05-10T08:37:47;29.30;;;11.32;;
41927;SDS011;27616;51.420;6.788;2023-05-10T08:40:12;27.08;;;10.55;;
41927;SDS011;27616;51.420;6.788;2023-05-10T08:42:43;30.48;;;11.70;;
41927;SDS011;27616;51.420;6.788;2023-05-10T08:45:15;30.88;;;11.30;;
41927;SDS011;27616;51.420;6.788;2023-05-10T08:47:42;28.73;;;11.38;;
41927;SDS011;27616;51.420;6.788;2023-05-10T08:50:08;28.88;;;10.57;;
41927;SDS011;27616;51.420;6.788;2023-05-10T08:52:36;27.60;;;10.93;;
41927;SDS011;27616;51.420;6.788;2023-05-10T08:55:06;27.10;;;11.27;;
41927;SDS011;27616;51.420;6.788;2023-05-10T08:57:32;26.13;;;10.73;;
41927;SDS011;27616;51.420;6.788;2023-05-10T08:59:59;25.63;;;10.82;;
41927;SDS011;27616;51.420;6.788;2023-05-10T09:02:26;27.95;;;11.18;;
41927;SDS011;27616;51.420;6.788;2023-05-10T09:04:52;27.60;;;11.68;;
41927;SDS011;27616;51.420;6.788;2023-05-10T09:07:18;24.23;;;9.48;;
41927;SDS011;27616;51.420;6.788;2023-05-10T09:09:45;24.52;;;10.68;;
41927;SDS011;27616;51.420;6.788;2023-05-10T09:12:11;24.70;;;10.07;;
41927;SDS011;27616;51.420;6.788;2023-05-10T09:14:38;20.58;;;8.73;;
41927;SDS011;27616;51.420;6.788;2023-05-10T09:17:04;22.88;;;9.88;;
41927;SDS011;27616;51.420;6.788;2023-05-10T09:19:30;20.73;;;8.52;;
41927;SDS011;27616;51.420;6.788;2023-05-10T09:21:56;19.40;;;9.00;;
41927;SDS011;27616;51.420;6.788;2023-05-10T09:24:25;21.40;;;9.52;;
41927;SDS011;27616;51.420;6.788;2023-05-10T09:26:52;20.73;;;8.95;;
41927;SDS011;27616;51.420;6.788;2023-05-10T09:29:17;24.05;;;9.55;;
41927;SDS011;27616;51.420;6.788;2023-05-10T09:34:11;19.00;;;9.20;;
41927;SDS011;27616;51.420;6.788;2023-05-10T09:36:51;19.45;;;8.30;;
41927;SDS011;27616;51.420;6.788;2023-05-10T09:39:29;21.48;;;9.20;;
41927;SDS011;27616;51.420;6.788;2023-05-10T09:41:56;18.42;;;8.75;;
41927;SDS011;27616;51.420;6.788;2023-05-10T09:44:22;17.80;;;8.10;;
41927;SDS011;27616;51.420;6.788;2023-05-10T09:46:48;15.77;;;8.00;;
41927;SDS011;27616;51.420;6.788;2023-05-10T09:49:16;14.95;;;7.80;;
41927;SDS011;27616;51.420;6.788;2023-05-10T09:51:41;17.02;;;7.88;;
41927;SDS011;27616;51.420;6.788;2023-05-10T09:54:11;18.50;;;7.85;;
41927;SDS011;27616;51.420;6.788;2023-05-10T09:56:39;20.02;;;8.57;;
41927;SDS011;27616;51.420;6.788;2023-05-10T09:59:06;14.90;;;7.53;;
41927;SDS011;27616;51.420;6.788;2023-05-10T10:01:35;21.73;;;10.27;;
41927;SDS011;27616;51.420;6.788;2023-05-10T10:04:02;22.95;;;11.82;;
41927;SDS011;27616;51.420;6.788;2023-05-10T10:06:36;17.83;;;7.78;;
41927;SDS011;27616;51.420;6.788;2023-05-10T10:09:03;21.35;;;9.32;;
41927;SDS011;27616;51.420;6.788;2023-05-10T10:11:30;19.50;;;9.10;;
41927;SDS011;27616;51.420;6.788;2023-05-10T10:13:55;17.23;;;8.05;;
41927;SDS011;27616;51.420;6.788;2023-05-10T10:16:21;16.85;;;8.32;;
41927;SDS011;27616;51.420;6.788;2023-05-10T10:18:47;17.83;;;8.13;;
41927;SDS011;27616;51.420;6.788;2023-05-10T10:21:14;18.30;;;7.95;;
41927;SDS011;27616;51.420;6.788;2023-05-10T10:23:40;17.23;;;7.57;;
41927;SDS011;27616;51.420;6.788;2023-05-10T10:26:06;15.35;;;7.18;;
41927;SDS011;27616;51.420;6.788;2023-05-10T10:31:46;18.40;;;8.25;;
41927;SDS011;27616;51.420;6.788;2023-05-10T10:34:33;17.25;;;7.40;;
41927;SDS011;27616;51.420;6.788;2023-05-10T10:37:03;17.10;;;7.88;;
41927;SDS011;27616;51.420;6.788;2023-05-10T10:39:30;16.15;;;7.22;;
41927;SDS011;27616;51.420;6.788;2023-05-10T10:41:56;19.45;;;8.80;;
41927;SDS011;27616;51.420;6.788;2023-05-10T10:49:49;17.20;;;7.53;;
41927;SDS011;27616;51.420;6.788;2023-05-10T10:52:36;18.27;;;8.15;;
41927;SDS011;27616;51.420;6.788;2023-05-10T10:55:04;18.63;;;8.65;;
41927;SDS011;27616;51.420;6.788;2023-05-10T11:08:00;25.65;;;10.85;;
41927;SDS011;27616;51.420;6.788;2023-05-10T11:10:35;21.50;;;10.02;;
41927;SDS011;27616;51.420;6.788;2023-05-10T11:15:36;20.98;;;8.80;;
41927;SDS011;27616;51.420;6.788;2023-05-10T11:18:18;19.17;;;8.80;;
41927;SDS011;27616;51.420;6.788;2023-05-10T11:21:00;17.15;;;8.38;;
41927;SDS011;27616;51.420;6.788;2023-05-10T11:23:56;16.13;;;8.20;;
41927;SDS011;27616;51.420;6.788;2023-05-10T11:26:22;17.45;;;7.55;;
41927;SDS011;27616;51.420;6.788;2023-05-10T11:28:51;17.48;;;8.85;;
41927;SDS011;27616;51.420;6.788;2023-05-10T11:31:19;15.88;;;8.32;;
41927;SDS011;27616;51.420;6.788;2023-05-10T11:33:45;13.98;;;7.70;;
41927;SDS011;27616;51.420;6.788;2023-05-10T11:36:14;14.98;;;6.82;;
41927;SDS011;27616;51.420;6.788;2023-05-10T11:38:40;12.20;;;6.40;;
41927;SDS011;27616;51.420;6.788;2023-05-10T11:41:08;11.02;;;5.72;;
41927;SDS011;27616;51.420;6.788;2023-05-10T11:43:38;12.20;;;6.22;;
41927;SDS011;27616;51.420;6.788;2023-05-10T11:46:08;13.38;;;6.47;;
41927;SDS011;27616;51.420;6.788;2023-05-10T11:48:37;11.43;;;5.90;;
41927;SDS011;27616;51.420;6.788;2023-05-10T11:51:05;9.35;;;5.35;;
41927;SDS011;27616;51.420;6.788;2023-05-10T11:53:32;10.63;;;5.55;;
41927;SDS011;27616;51.420;6.788;2023-05-10T11:56:05;7.90;;;4.95;;
41927;SDS011;27616;51.420;6.788;2023-05-10T11:58:32;5.78;;;3.85;;
41927;SDS011;27616;51.420;6.788;2023-05-10T12:00:58;6.72;;;3.92;;
41927;SDS011;27616;51.420;6.788;2023-05-10T12:03:25;5.80;;;3.33;;
41927;SDS011;27616;51.420;6.788;2023-05-10T12:05:55;6.63;;;4.15;;
41927;SDS011;27616;51.420;6.788;2023-05-10T12:08:22;8.85;;;4.25;;
41927;SDS011;27616;51.420;6.788;2023-05-10T12:10:49;7.30;;;4.13;;
41927;SDS011;27616;51.420;6.788;2023-05-10T12:13:16;7.40;;;4.13;;
41927;SDS011;27616;51.420;6.788;2023-05-10T12:15:43;7.55;;;4.07;;
41927;SDS011;27616;51.420;6.788;2023-05-10T12:18:09;8.18;;;3.90;;
41927;SDS011;27616;51.420;6.788;2023-05-10T12:20:36;6.22;;;3.42;;
41927;SDS011;27616;51.420;6.788;2023-05-10T12:23:03;7.05;;;3.80;;
41927;SDS011;27616;51.420;6.788;2023-05-10T12:25:34;8.30;;;3.97;;
41927;SDS011;27616;51.420;6.788;2023-05-10T12:28:02;7.35;;;3.90;;
41927;SDS011;27616;51.420;6.788;2023-05-10T12:30:31;6.75;;;3.75;;
41927;SDS011;27616;51.420;6.788;2023-05-10T12:33:01;7.32;;;4.18;;
41927;SDS011;27616;51.420;6.788;2023-05-10T12:35:43;7.85;;;4.47;;
41927;SDS011;27616;51.420;6.788;2023-05-10T12:41:11;8.00;;;4.45;;
41927;SDS011;27616;51.420;6.788;2023-05-10T12:43:38;6.93;;;3.60;;
41927;SDS011;27616;51.420;6.788;2023-05-10T12:46:08;8.50;;;4.22;;
41927;SDS011;27616;51.420;6.788;2023-05-10T12:48:39;6.18;;;3.90;;
41927;SDS011;27616;51.420;6.788;2023-05-10T12:51:05;7.90;;;4.30;;
41927;SDS011;27616;51.420;6.788;2023-05-10T12:53:34;9.30;;;4.05;;
41927;SDS011;27616;51.420;6.788;2023-05-10T12:56:01;5.88;;;3.33;;
41927;SDS011;27616;51.420;6.788;2023-05-10T12:58:26;8.55;;;3.70;;
41927;SDS011;27616;51.420;6.788;2023-05-10T13:00:52;6.65;;;3.28;;
41927;SDS011;27616;51.420;6.788;2023-05-10T13:03:18;6.95;;;3.58;;
41927;SDS011;27616;51.420;6.788;2023-05-10T13:05:44;7.90;;;4.28;;
41927;SDS011;27616;51.420;6.788;2023-05-10T13:08:10;8.65;;;4.13;;
41927;SDS011;27616;51.420;6.788;2023-05-10T13:10:36;6.18;;;4.00;;
41927;SDS011;27616;51.420;6.788;2023-05-10T13:13:02;6.68;;;3.80;;
41927;SDS011;27616;51.420;6.788;2023-05-10T13:15:27;5.40;;;3.63;;
41927;SDS011;27616;51.420;6.788;2023-05-10T13:17:53;6.70;;;3.42;;
41927;SDS011;27616;51.420;6.788;2023-05-10T13:20:19;8.73;;;3.63;;
41927;SDS011;27616;51.420;6.788;2023-05-10T13:22:45;8.05;;;3.80;;
41927;SDS011;27616;51.420;6.788;2023-05-10T13:25:12;6.65;;;3.53;;
41927;SDS011;27616;51.420;6.788;2023-05-10T13:27:41;5.57;;;3.17;;
41927;SDS011;27616;51.420;6.788;2023-05-10T13:30:07;6.68;;;3.72;;
41927;SDS011;27616;51.420;6.788;2023-05-10T13:32:34;6.47;;;3.83;;
41927;SDS011;27616;51.420;6.788;2023-05-10T13:35:00;7.32;;;4.32;;
41927;SDS011;27616;51.420;6.788;2023-05-10T13:37:26;8.82;;;4.80;;
41927;SDS011;27616;51.420;6.788;2023-05-10T13:39:51;6.13;;;3.70;;
41927;SDS011;27616;51.420;6.788;2023-05-10T13:42:17;6.88;;;3.88;;
41927;SDS011;27616;51.420;6.788;2023-05-10T13:44:43;6.43;;;4.00;;
41927;SDS011;27616;51.420;6.788;2023-05-10T13:47:09;6.03;;;4.13;;
41927;SDS011;27616;51.420;6.788;2023-05-10T13:49:35;6.15;;;3.40;;
41927;SDS011;27616;51.420;6.788;2023-05-10T13:52:01;6.85;;;3.90;;
41927;SDS011;27616;51.420;6.788;2023-05-10T13:54:35;6.28;;;3.42;;
41927;SDS011;27616;51.420;6.788;2023-05-10T13:57:02;7.10;;;4.07;;
41927;SDS011;27616;51.420;6.788;2023-05-10T13:59:28;5.95;;;3.50;;
41927;SDS011;27616;51.420;6.788;2023-05-10T14:01:54;7.15;;;4.07;;
41927;SDS011;27616;51.420;6.788;2023-05-10T14:04:20;6.75;;;4.13;;
41927;SDS011;27616;51.420;6.788;2023-05-10T14:06:45;7.80;;;4.40;;
41927;SDS011;27616;51.420;6.788;2023-05-10T14:09:11;6.97;;;4.57;;
41927;SDS011;27616;51.420;6.788;2023-05-10T14:11:37;6.90;;;4.05;;
41927;SDS011;27616;51.420;6.788;2023-05-10T14:14:06;8.15;;;4.53;;
41927;SDS011;27616;51.420;6.788;2023-05-10T14:16:32;7.63;;;4.55;;
41927;SDS011;27616;51.420;6.788;2023-05-10T14:18:58;9.45;;;5.30;;
41927;SDS011;27616;51.420;6.788;2023-05-10T14:21:24;10.82;;;4.90;;
41927;SDS011;27616;51.420;6.788;2023-05-10T14:23:50;7.72;;;4.65;;
41927;SDS011;27616;51.420;6.788;2023-05-10T14:26:15;7.10;;;3.95;;
41927;SDS011;27616;51.420;6.788;2023-05-10T14:28:41;9.00;;;3.83;;
41927;SDS011;27616;51.420;6.788;2023-05-10T14:31:07;5.47;;;3.50;;
41927;SDS011;27616;51.420;6.788;2023-05-10T14:33:33;9.75;;;4.40;;
41927;SDS011;27616;51.420;6.788;2023-05-10T14:35:58;8.70;;;4.60;;
41927;SDS011;27616;51.420;6.788;2023-05-10T14:38:25;7.68;;;4.05;;
41927;SDS011;27616;51.420;6.788;2023-05-10T14:40:51;6.07;;;3.70;;
41927;SDS011;27616;51.420;6.788;2023-05-10T14:43:17;6.75;;;3.65;;
41927;SDS011;27616;51.420;6.788;2023-05-10T14:45:43;8.13;;;3.85;;
41927;SDS011;27616;51.420;6.788;2023-05-10T14:48:10;9.52;;;4.47;;
41927;SDS011;27616;51.420;6.788;2023-05-10T14:50:40;8.88;;;3.90;;
41927;SDS011;27616;51.420;6.788;2023-05-10T14:53:06;9.80;;;5.45;;
41927;SDS011;27616;51.420;6.788;2023-05-10T14:55:32;9.35;;;4.93;;
41927;SDS011;27616;51.420;6.788;2023-05-10T14:57:58;10.20;;;6.20;;
41927;SDS011;27616;51.420;6.788;2023-05-10T15:00:23;13.18;;;6.85;;
41927;SDS011;27616;51.420;6.788;2023-05-10T15:02:49;9.90;;;5.80;;
41927;SDS011;27616;51.420;6.788;2023-05-10T15:05:15;14.25;;;6.35;;
41927;SDS011;27616;51.420;6.788;2023-05-10T15:07:40;17.80;;;9.30;;
41927;SDS011;27616;51.420;6.788;2023-05-10T15:10:09;17.35;;;9.82;;
41927;SDS011;27616;51.420;6.788;2023-05-10T15:12:35;18.80;;;10.18;;
41927;SDS011;27616;51.420;6.788;2023-05-10T15:15:01;15.70;;;8.25;;
41927;SDS011;27616;51.420;6.788;2023-05-10T15:17:27;16.02;;;8.63;;
41927;SDS011;27616;51.420;6.788;2023-05-10T15:19:53;14.75;;;7.43;;
41927;SDS011;27616;51.420;6.788;2023-05-10T15:22:18;19.65;;;10.80;;
41927;SDS011;27616;51.420;6.788;2023-05-10T15:24:44;13.50;;;7.93;;
41927;SDS011;27616;51.420;6.788;2023-05-10T15:27:10;14.45;;;7.95;;
41927;SDS011;27616;51.420;6.788;2023-05-10T15:29:35;16.58;;;8.35;;